createdAt,value
2023-04-15T00:00:25.332Z,7.70
2023-04-15T00:03:28.026Z,7.70
2023-04-15T00:06:30.102Z,7.70
2023-04-15T00:09:32.482Z,7.60
2023-04-15T00:12:34.475Z,7.50
2023-04-15T00:15:37.365Z,7.40
2023-04-15T00:18:39.401Z,7.50
2023-04-15T00:21:41.384Z,7.60
2023-04-15T00:24:43.519Z,7.40
2023-04-15T00:27:47.317Z,7.50
2023-04-15T00:30:50.681Z,7.40
2023-04-15T00:33:52.687Z,7.30
2023-04-15T00:36:54.876Z,7.20
2023-04-15T00:39:56.998Z,7.30
2023-04-15T00:42:59.096Z,7.30
2023-04-15T00:46:01.815Z,7.40
2023-04-15T00:49:04.623Z,7.40
2023-04-15T00:52:06.691Z,7.20
2023-04-15T00:55:09.476Z,7.00
2023-04-15T00:58:11.514Z,6.80
2023-04-15T01:01:13.752Z,6.70
2023-04-15T01:04:16.707Z,6.70
2023-04-15T01:07:19.371Z,6.80
2023-04-15T01:10:21.732Z,6.90
2023-04-15T01:13:24.694Z,7.00
2023-04-15T01:16:26.922Z,7.10
2023-04-15T01:19:29.093Z,6.60
2023-04-15T01:22:33.493Z,6.10
2023-04-15T01:25:35.757Z,5.70
2023-04-15T01:28:37.782Z,5.80
2023-04-15T01:31:40.549Z,5.90
2023-04-15T01:34:42.670Z,6.10
2023-04-15T01:37:45.420Z,6.10
2023-04-15T01:40:47.533Z,6.30
2023-04-15T01:43:49.641Z,6.30
2023-04-15T01:46:51.739Z,6.50
2023-04-15T01:49:55.578Z,6.50
2023-04-15T01:52:57.569Z,6.50
2023-04-15T01:55:59.632Z,6.60
2023-04-15T01:59:04.191Z,6.60
2023-04-15T02:02:06.305Z,6.60
2023-04-15T02:05:08.667Z,6.60
2023-04-15T02:08:12.312Z,6.00
2023-04-15T02:11:14.385Z,5.90
2023-04-15T02:14:16.415Z,5.90
2023-04-15T02:17:18.468Z,6.00
2023-04-15T02:20:20.910Z,6.00
2023-04-15T02:23:27.911Z,6.00
2023-04-15T02:26:29.928Z,6.10
2023-04-15T02:29:32.980Z,6.30
2023-04-15T02:32:36.281Z,6.40
2023-04-15T02:35:38.295Z,6.40
2023-04-15T02:38:40.414Z,6.30
2023-04-15T02:41:43.974Z,6.30
2023-04-15T02:44:47.443Z,6.40
2023-04-15T02:47:49.517Z,6.30
2023-04-15T02:50:52.056Z,6.30
2023-04-15T02:53:54.345Z,6.40
2023-04-15T02:56:56.457Z,6.10
2023-04-15T02:59:58.455Z,6.00
2023-04-15T03:03:04.014Z,5.90
2023-04-15T03:06:06.319Z,6.00
2023-04-15T03:09:08.705Z,5.80
2023-04-15T03:12:12.403Z,5.80
2023-04-15T03:15:15.784Z,5.70
2023-04-15T03:18:21.167Z,5.60
2023-04-15T03:21:25.349Z,5.60
2023-04-15T03:24:28.206Z,5.60
2023-04-15T03:27:31.450Z,5.60
2023-04-15T03:30:36.257Z,5.40
2023-04-15T03:33:38.315Z,5.60
2023-04-15T03:36:40.341Z,5.50
2023-04-15T03:39:42.285Z,5.40
2023-04-15T03:42:44.249Z,5.30
2023-04-15T03:45:48.717Z,5.50
2023-04-15T03:48:50.666Z,5.40
2023-04-15T03:51:52.636Z,5.30
2023-04-15T03:54:54.579Z,5.10
2023-04-15T03:57:56.542Z,4.80
2023-04-15T04:00:59.481Z,4.70
2023-04-15T04:04:01.765Z,4.90
2023-04-15T04:07:03.829Z,4.90
2023-04-15T04:10:06.707Z,5.10
2023-04-15T04:13:11.404Z,5.30
2023-04-15T04:16:13.682Z,5.30
2023-04-15T04:19:15.769Z,4.90
2023-04-15T04:22:17.772Z,5.10
2023-04-15T04:25:19.800Z,5.10
2023-04-15T04:28:21.854Z,4.90
2023-04-15T04:31:23.874Z,4.80
2023-04-15T04:34:25.865Z,4.90
2023-04-15T04:37:27.825Z,4.90
2023-04-15T04:40:30.160Z,4.40
2023-04-15T04:43:32.179Z,4.70
2023-04-15T04:46:34.454Z,4.80
2023-04-15T04:49:36.502Z,5.00
2023-04-15T04:52:39.227Z,5.00
2023-04-15T04:55:41.297Z,4.90
2023-04-15T04:58:43.393Z,4.90
2023-04-15T05:01:45.615Z,4.90
2023-04-15T05:04:47.908Z,5.00
2023-04-15T05:07:49.857Z,4.90
2023-04-15T05:10:52.101Z,4.50
2023-04-15T05:13:54.338Z,4.30
2023-04-15T05:16:56.594Z,4.20
2023-04-15T05:19:58.991Z,4.40
2023-04-15T05:23:01.310Z,4.70
2023-04-15T05:26:03.403Z,4.90
2023-04-15T05:29:05.654Z,4.90
2023-04-15T05:32:08.045Z,5.00
2023-04-15T05:35:10.462Z,5.00
2023-04-15T05:38:12.689Z,5.30
2023-04-15T05:41:14.694Z,5.00
2023-04-15T05:44:16.676Z,4.70
2023-04-15T05:47:18.716Z,5.10
2023-04-15T05:50:22.021Z,5.50
2023-04-15T05:53:23.991Z,5.80
2023-04-15T05:56:25.978Z,6.10
2023-04-15T05:59:27.986Z,6.50
2023-04-15T06:02:30.068Z,6.90
2023-04-15T06:05:32.037Z,7.10
2023-04-15T06:08:34.076Z,7.20
2023-04-15T06:11:36.188Z,7.40
2023-04-15T06:14:41.013Z,7.70
2023-04-15T06:17:43.091Z,7.80
2023-04-15T06:20:45.134Z,7.70
2023-04-15T06:23:47.216Z,7.90
2023-04-15T06:26:49.192Z,8.00
2023-04-15T06:29:51.166Z,8.30
2023-04-15T06:32:53.293Z,8.90
2023-04-15T06:35:55.244Z,9.10
2023-04-15T06:38:57.791Z,9.60
2023-04-15T06:41:59.851Z,9.90
2023-04-15T06:45:02.463Z,9.70
2023-04-15T06:48:04.820Z,9.50
2023-04-15T06:51:06.760Z,9.30
2023-04-15T06:54:08.756Z,9.10
2023-04-15T06:57:10.751Z,9.20
2023-04-15T07:00:13.311Z,9.30
2023-04-15T07:03:15.543Z,9.40
2023-04-15T07:06:18.163Z,9.70
2023-04-15T07:09:20.241Z,10.00
2023-04-15T07:12:22.689Z,10.50
2023-04-15T07:15:24.700Z,11.10
2023-04-15T07:18:26.672Z,12.10
2023-04-15T07:21:28.660Z,12.30
2023-04-15T07:24:30.732Z,12.40
2023-04-15T07:27:32.859Z,12.40
2023-04-15T07:30:35.262Z,13.10
2023-04-15T07:33:40.852Z,13.30
2023-04-15T07:36:45.955Z,13.40
2023-04-15T07:39:49.925Z,13.50
2023-04-15T07:42:53.722Z,13.90
2023-04-15T07:45:55.971Z,14.10
2023-04-15T07:48:58.004Z,14.40
2023-04-15T07:52:00.364Z,14.70
2023-04-15T07:55:02.425Z,15.00
2023-04-15T07:58:04.490Z,14.90
2023-04-15T08:01:06.481Z,15.20
2023-04-15T08:04:09.317Z,15.90
2023-04-15T08:07:11.536Z,16.20
2023-04-15T08:10:15.413Z,16.70
2023-04-15T08:13:17.507Z,17.40
2023-04-15T08:16:26.557Z,16.90
2023-04-15T08:19:28.715Z,16.90
2023-04-15T08:22:32.905Z,16.40
2023-04-15T08:25:34.913Z,16.30
2023-04-15T08:28:47.833Z,16.40
2023-04-15T08:31:50.129Z,16.60
2023-04-15T08:34:54.137Z,16.40
2023-04-15T08:37:56.140Z,17.00
2023-04-15T08:41:04.053Z,16.90
2023-04-15T08:44:06.639Z,16.40
2023-04-15T08:47:09.435Z,17.30
2023-04-15T08:50:12.558Z,17.70
2023-04-15T08:53:15.389Z,17.60
2023-04-15T08:56:18.916Z,17.80
2023-04-15T08:59:22.300Z,17.90
2023-04-15T09:02:25.627Z,18.50
2023-04-15T09:05:27.688Z,18.30
2023-04-15T09:08:29.621Z,18.60
2023-04-15T09:11:32.829Z,19.30
2023-04-15T09:14:35.040Z,17.80
2023-04-15T09:17:45.482Z,17.80
2023-04-15T09:20:47.921Z,18.30
2023-04-15T09:24:00.150Z,18.70
2023-04-15T09:27:02.514Z,18.00
2023-04-15T09:30:12.403Z,17.80
2023-04-15T09:33:15.364Z,17.60
2023-04-15T09:36:17.687Z,17.10
2023-04-15T09:39:19.677Z,17.10
2023-04-15T09:42:22.409Z,17.00
2023-04-15T09:45:28.820Z,17.20
2023-04-15T09:54:45.729Z,16.90
2023-04-15T09:57:47.928Z,16.80
2023-04-15T10:00:51.814Z,16.90
2023-04-15T10:03:57.189Z,16.80
2023-04-15T10:07:00.562Z,17.10
2023-04-15T10:10:05.910Z,17.30
2023-04-15T10:13:09.071Z,17.20
2023-04-15T10:16:12.626Z,17.40
2023-04-15T10:19:15.837Z,17.30
2023-04-15T10:22:18.451Z,17.40
2023-04-15T10:25:24.154Z,17.70
2023-04-15T10:28:27.241Z,17.80
2023-04-15T10:31:29.741Z,17.90
2023-04-15T10:34:32.929Z,18.20
2023-04-15T10:37:39.212Z,18.00
2023-04-15T10:40:41.310Z,18.00
2023-04-15T10:43:54.478Z,18.30
2023-04-15T10:46:59.073Z,19.10
2023-04-15T10:50:02.613Z,19.50
2023-04-15T11:03:38.182Z,19.20
2023-04-15T11:06:46.403Z,18.70
2023-04-15T11:09:48.525Z,18.80
2023-04-15T11:13:04.219Z,18.60
2023-04-15T11:16:06.357Z,18.50
2023-04-15T11:19:08.510Z,18.50
2023-04-15T11:22:11.408Z,18.40
2023-04-15T11:25:25.974Z,18.30
2023-04-15T11:28:29.596Z,18.30
2023-04-15T11:31:31.744Z,18.30
2023-04-15T11:34:35.626Z,18.40
2023-04-15T11:37:38.280Z,18.30
2023-04-15T11:40:41.137Z,18.60
2023-04-15T11:43:44.016Z,18.70
2023-04-15T11:46:46.043Z,18.60
2023-04-15T11:49:49.022Z,18.70
2023-04-15T11:52:58.431Z,18.50
2023-04-15T11:56:00.487Z,18.50
2023-04-15T11:59:02.700Z,18.40
2023-04-15T12:02:15.178Z,18.40
2023-04-15T12:05:17.543Z,18.40
2023-04-15T12:08:22.594Z,18.40
2023-04-15T12:11:30.724Z,18.60
2023-04-15T12:14:33.793Z,18.70
2023-04-15T12:17:51.479Z,18.90
2023-04-15T12:20:54.315Z,18.70
2023-04-15T12:23:56.795Z,19.10
2023-04-15T12:27:12.490Z,19.30
2023-04-15T12:30:15.002Z,19.40
2023-04-15T12:33:16.993Z,19.00
2023-04-15T12:36:18.984Z,19.00
2023-04-15T12:39:30.503Z,18.90
2023-04-15T12:42:32.958Z,19.00
2023-04-15T12:45:38.354Z,18.90
2023-04-15T12:48:41.738Z,19.00
2023-04-15T12:51:43.817Z,18.90
2023-04-15T12:54:45.819Z,18.90
2023-04-15T12:57:47.751Z,18.80
2023-04-15T13:00:49.960Z,18.50
2023-04-15T13:03:51.942Z,18.50
2023-04-15T13:06:54.071Z,18.60
2023-04-15T13:09:56.140Z,18.50
2023-04-15T13:12:58.505Z,18.30
2023-04-15T13:16:03.063Z,17.90
2023-04-15T13:19:11.904Z,17.70
2023-04-15T13:22:13.914Z,17.40
2023-04-15T13:25:15.931Z,17.50
2023-04-15T13:28:18.182Z,17.40
2023-04-15T13:31:20.203Z,17.30
2023-04-15T13:34:22.429Z,17.10
2023-04-15T13:37:28.474Z,17.00
2023-04-15T13:40:31.232Z,16.90
2023-04-15T13:43:33.201Z,16.90
2023-04-15T13:46:35.223Z,16.90
2023-04-15T13:49:37.198Z,16.80
2023-04-15T13:52:39.123Z,16.70
2023-04-15T13:55:41.188Z,16.60
2023-04-15T13:58:47.558Z,16.50
2023-04-15T14:01:49.791Z,16.40
2023-04-15T14:04:51.896Z,16.30
2023-04-15T14:07:54.074Z,16.30
2023-04-15T14:10:56.052Z,16.10
2023-04-15T14:13:58.363Z,16.10
2023-04-15T14:17:00.360Z,16.20
2023-04-15T14:20:02.628Z,16.10
2023-04-15T14:23:05.370Z,16.10
2023-04-15T14:26:08.190Z,16.10
2023-04-15T14:29:10.312Z,16.10
2023-04-15T14:32:12.934Z,16.10
2023-04-15T14:35:17.683Z,16.20
2023-04-15T14:38:19.826Z,16.20
2023-04-15T14:41:22.579Z,16.20
2023-04-15T14:44:24.667Z,16.30
2023-04-15T14:47:26.866Z,16.20
2023-04-15T14:50:29.190Z,16.30
2023-04-15T14:53:31.288Z,16.30
2023-04-15T14:56:34.169Z,16.20
2023-04-15T14:59:36.180Z,16.20
2023-04-15T15:02:40.522Z,16.10
2023-04-15T15:05:44.868Z,16.10
2023-04-15T15:08:49.481Z,16.10
2023-04-15T15:11:51.555Z,16.10
2023-04-15T15:14:56.120Z,16.20
2023-04-15T15:17:58.391Z,16.10
2023-04-15T15:21:00.415Z,16.00
2023-04-15T15:24:02.594Z,16.10
2023-04-15T15:27:04.700Z,16.00
2023-04-15T15:30:07.422Z,16.10
2023-04-15T15:33:09.746Z,16.10
2023-04-15T15:36:12.223Z,16.20
2023-04-15T15:39:14.392Z,16.20
2023-04-15T15:42:16.715Z,16.00
2023-04-15T15:45:18.921Z,16.00
2023-04-15T15:48:21.932Z,15.90
2023-04-15T15:51:24.188Z,15.90
2023-04-15T15:54:26.299Z,15.70
2023-04-15T15:57:28.331Z,15.60
2023-04-15T16:00:30.416Z,15.40
2023-04-15T16:03:32.626Z,15.30
2023-04-15T16:06:35.313Z,15.10
2023-04-15T16:09:37.664Z,14.90
2023-04-15T16:12:39.847Z,14.70
2023-04-15T16:15:41.912Z,14.70
2023-04-15T16:18:43.923Z,14.80
2023-04-15T16:21:45.951Z,14.70
2023-04-15T16:24:48.094Z,14.50
2023-04-15T16:28:00.725Z,14.50
2023-04-15T16:31:03.385Z,14.40
2023-04-15T16:34:05.886Z,14.40
2023-04-15T16:37:07.734Z,14.30
2023-04-15T16:40:10.444Z,14.10
2023-04-15T16:43:12.857Z,13.90
2023-04-15T16:46:15.052Z,13.90
2023-04-15T16:49:17.124Z,13.80
2023-04-15T16:52:19.129Z,13.50
2023-04-15T16:55:21.958Z,13.40
2023-04-15T16:58:23.909Z,13.40
2023-04-15T17:01:25.929Z,13.30
2023-04-15T17:04:28.868Z,13.30
2023-04-15T17:07:31.085Z,13.10
2023-04-15T17:10:33.161Z,13.20
2023-04-15T17:13:37.862Z,13.10
2023-04-15T17:16:40.244Z,13.10
2023-04-15T17:19:42.557Z,13.10
2023-04-15T17:22:45.502Z,13.00
2023-04-15T17:25:47.680Z,13.00
2023-04-15T17:28:49.940Z,13.00
2023-04-15T17:31:52.243Z,12.90
2023-04-15T17:34:54.410Z,12.90
2023-04-15T17:37:56.588Z,13.00
2023-04-15T17:40:58.758Z,12.70
2023-04-15T17:44:06.547Z,12.80
2023-04-15T17:47:08.902Z,12.70
2023-04-15T17:50:11.094Z,12.70
2023-04-15T17:53:13.358Z,12.60
2023-04-15T17:56:15.543Z,12.60
2023-04-15T17:59:19.244Z,12.50
2023-04-15T18:02:21.614Z,12.40
2023-04-15T18:05:23.931Z,12.30
2023-04-15T18:08:28.640Z,12.40
2023-04-15T18:11:32.384Z,12.40
2023-04-15T18:14:35.376Z,12.40
2023-04-15T18:17:37.723Z,12.30
2023-04-15T18:20:40.171Z,12.20
2023-04-15T18:23:42.468Z,12.20
2023-04-15T18:26:46.251Z,12.20
2023-04-15T18:29:51.234Z,12.10
2023-04-15T18:32:53.359Z,12.10
2023-04-15T18:35:57.182Z,12.00
2023-04-15T18:38:59.898Z,12.10
2023-04-15T18:42:02.037Z,12.10
2023-04-15T18:45:04.438Z,12.10
2023-04-15T18:48:06.805Z,12.00
2023-04-15T18:51:09.629Z,12.10
2023-04-15T18:54:18.739Z,12.10
2023-04-15T18:57:23.765Z,12.00
2023-04-15T19:00:34.460Z,12.00
2023-04-15T19:03:36.505Z,11.90
2023-04-15T19:06:38.746Z,11.90
2023-04-15T19:09:41.118Z,12.00
2023-04-15T19:12:44.017Z,12.00
2023-04-15T19:15:45.991Z,12.00
2023-04-15T19:18:48.014Z,11.90
2023-04-15T19:21:50.606Z,11.90
2023-04-15T19:24:52.790Z,11.90
2023-04-15T19:27:56.750Z,12.00
2023-04-15T19:31:00.387Z,12.00
2023-04-15T19:34:02.501Z,11.90
2023-04-15T19:37:04.624Z,11.90
2023-04-15T19:40:07.472Z,11.90
2023-04-15T19:43:10.104Z,11.90
2023-04-15T19:46:12.186Z,11.90
2023-04-15T19:49:14.697Z,11.90
2023-04-15T19:52:16.743Z,11.90
2023-04-15T19:55:19.065Z,11.90
2023-04-15T19:58:21.023Z,11.80
2023-04-15T20:01:23.370Z,11.80
2023-04-15T20:04:25.657Z,11.80
2023-04-15T20:07:28.008Z,11.90
2023-04-15T20:10:31.806Z,11.90
2023-04-15T20:13:34.214Z,11.80
2023-04-15T20:16:36.256Z,11.70
2023-04-15T20:19:38.367Z,11.80
2023-04-15T20:22:40.409Z,11.70
2023-04-15T20:25:42.535Z,11.70
2023-04-15T20:28:44.583Z,11.70
2023-04-15T20:31:47.094Z,11.80
2023-04-15T20:34:49.053Z,11.70
2023-04-15T20:37:50.967Z,11.80
2023-04-15T20:40:52.902Z,11.70
2023-04-15T20:43:55.068Z,11.80
2023-04-15T20:46:57.378Z,11.70
2023-04-15T20:49:59.395Z,11.70
2023-04-15T20:53:01.421Z,11.70
2023-04-15T20:56:03.582Z,11.70
2023-04-15T20:59:05.984Z,11.60
2023-04-15T21:02:08.143Z,11.60
2023-04-15T21:05:10.560Z,11.60
2023-04-15T21:08:12.506Z,11.70
2023-04-15T21:11:24.301Z,11.60
2023-04-15T21:14:37.023Z,11.50
2023-04-15T21:17:39.394Z,11.50
2023-04-15T21:20:41.391Z,11.50
2023-04-15T21:23:43.363Z,11.60
2023-04-15T21:26:45.389Z,11.60
2023-04-15T21:29:47.337Z,11.60
2023-04-15T21:32:49.455Z,11.60
2023-04-15T21:35:52.923Z,11.50
2023-04-15T21:38:55.026Z,11.60
2023-04-15T21:41:57.143Z,11.50
2023-04-15T21:44:59.439Z,11.50
2023-04-15T21:48:07.818Z,11.50
2023-04-15T21:51:10.901Z,11.50
2023-04-15T21:54:12.897Z,11.60
2023-04-15T21:57:14.886Z,11.40
2023-04-15T22:00:17.128Z,11.50
2023-04-15T22:03:19.240Z,11.50
2023-04-15T22:06:21.570Z,11.40
2023-04-15T22:09:23.562Z,11.50
2023-04-15T22:12:25.593Z,11.40
2023-04-15T22:15:28.081Z,11.40
2023-04-15T22:18:30.105Z,11.50
2023-04-15T22:21:32.180Z,11.40
2023-04-15T22:24:40.352Z,11.40
2023-04-15T22:27:43.132Z,11.40
2023-04-15T22:30:51.929Z,11.40
2023-04-15T22:33:54.119Z,11.40
2023-04-15T22:36:56.257Z,11.40
2023-04-15T22:39:58.514Z,11.40
2023-04-15T22:43:00.470Z,11.40
2023-04-15T22:46:02.564Z,11.40
2023-04-15T22:49:07.953Z,11.40
2023-04-15T22:52:17.202Z,11.40
2023-04-15T22:55:28.149Z,11.50
2023-04-15T23:01:39.300Z,11.40
2023-04-15T23:04:41.478Z,11.40
2023-04-15T23:07:43.667Z,11.40
2023-04-15T23:10:45.701Z,11.40
2023-04-15T23:13:47.715Z,11.40
2023-04-15T23:16:49.818Z,11.40
2023-04-15T23:19:51.755Z,11.40
2023-04-15T23:22:53.742Z,11.40
2023-04-15T23:25:55.665Z,11.40
2023-04-15T23:28:57.855Z,11.40
2023-04-15T23:32:00.084Z,11.40
2023-04-15T23:35:05.038Z,11.50
2023-04-15T23:38:07.037Z,11.50
2023-04-15T23:41:09.024Z,11.50
2023-04-15T23:44:10.994Z,11.50
2023-04-15T23:47:13.072Z,11.50
2023-04-15T23:50:15.060Z,11.40
2023-04-15T23:53:18.287Z,11.50
2023-04-15T23:56:20.429Z,11.50
2023-04-15T23:59:22.434Z,11.40
